LEASLFRV

Guest
Details From LEAS - Asturias
To LFRV - Vannes Meucon
Flight Number -
Tags generated
Created
Modified
Stats Distance 290 nm / 536 km
Max Altitude 23,600 ft / 7,193 m
Waypoints 7
Social Downloads 0
Likes 0
Share VATSIM

Download

Looking for another format? Having issues loading an existing format? Contact us
Advertisement - Login to hide

Notes

Basic altitude profile: - Ascent Rate: 2500ft/min - Ascent Speed: 250kts - Cruise Altitude: 35000ft - Cruise Speed: 420kts - Descent Rate: 1500ft/min - Descent Speed: 250kts Options: - Use NATs: yes - Use PACOTS: yes - Use low airways: yes - Use high airways: yes

Route

LEAS VES G41 ATLEN UN872 TUROP UN864 NOVAN LFRV

ID Type Via Altitude Latitude Longitude Leg Dist Tot Dist Heading (true) Name
O LEAS APT - 0 ft / 0 m 43.56350˚ -6.03467˚ - 0 nm - Asturias
VES VOR - 0 ft / 0 m 43.56459˚ -6.03067˚ 0 nm 0 nm 69° / 69° ASTURIAS VOR-DME
KANDA FIX G41 (AWY-LO) 9,500 ft / 2,896 m 43.77061˚ -5.79740˚ 15 nm 16 nm 39° / 39° -
ATLEN FIX G41 (AWY-LO) 23,500 ft / 7,163 m 44.50536˚ -4.94753˚ 57 nm 73 nm 39° / 40° -
TUROP FIX UN872 (AWY-HI) 23,600 ft / 7,193 m 46.03750˚ -3.71333˚ 105 nm 179 nm 29° / 30° -
NOVAN FIX UN864 (AWY-HI) 19,900 ft / 6,066 m 46.32222˚ -3.69917˚ 17 nm 196 nm 2° / 2° -
O LFRV APT - 0 ft / 0 m 47.72326˚ -2.71851˚ 93 nm 289 nm 25° / 26° Vannes Meucon

Altitude Profile

Advertisement - Login to hide

Weather


0- 5 10 15 20 25 30 35+ Temperature / ° C

Clouds and Precipitation
Forecast for 2017-12-18 00:00 UTC. Updated 43 minutes ago

Ground ~20,000 ft ~40,000 ft Winds

LEAS

Details ICAO LEAS (OVD)
Name Asturias
Region Spain
Timezone Europe/Madrid (UTC+1.0)
Stats Elevation 416 ft / 127 m (AMSL)
Location 43.563496° -6.034670°
Runways 1
Magnetic Variation 1.627° W

METAR

LEAS 172200Z 24008KT 9999 FEW060 06/05 Q1035 NOSIG

Decode

TAF

TAF LEAS 172000Z 1721/1821 22006KT 9999 FEW035 SCT050 TX13/1814Z TN03/1807Z BECMG 1814/1816 28012G22KT TEMPO 1812/1821 RA BKN014

Decode

Departure Runways

ID Width Length Bearing (true) Bearing (mag) Surface Threshold Offset Overrun Length
11 148 ft / 45 m 7,216 ft / 2,200 m 108.09° 109.72° Asphalt 0 ft / 0 m 164 ft / 50 m
29 148 ft / 45 m 7,216 ft / 2,200 m 288.10° 289.73° Asphalt 0 ft / 0 m 164 ft / 50 m

LFRV

Details ICAO LFRV (VNE)
Name Vannes Meucon
Region France
Timezone Europe/Paris (UTC+1.0)
Stats Elevation 439 ft / 134 m (AMSL)
Location 47.723264° -2.718513°
Runways 1
Magnetic Variation 0.920° W

METAR

LFRV 172200Z AUTO 26007KT 220V290 9999 BKN014 OVC019 09/08 Q1028

Decode

TAF

Not found

Destination Runways

ID Width Length Bearing (true) Bearing (mag) Surface Threshold Offset Overrun Length
04 148 ft / 45 m 5,006 ft / 1,526 m 39.13° 40.05° Asphalt 0 ft / 0 m 0 ft / 0 m
22 148 ft / 45 m 5,006 ft / 1,526 m 219.14° 220.06° Asphalt 0 ft / 0 m 0 ft / 0 m

Approach Navaids

Runway Type Ident Frequency Range Bearing (true) Bearing (mag) Slope Elevation
22 Localiser VNS 110.70 MHz 18 nm / 33 km 219.13° 220.06° - 432 ft / 132 m (AMSL)